createdAt,value
2023-04-15T00:00:34.509Z,10.35
2023-04-15T00:01:37.287Z,10.35
2023-04-15T00:02:39.831Z,10.31
2023-04-15T00:03:42.300Z,10.28
2023-04-15T00:04:46.265Z,10.28
2023-04-15T00:05:48.775Z,10.27
2023-04-15T00:06:55.112Z,10.28
2023-04-15T00:07:58.970Z,10.30
2023-04-15T00:09:01.405Z,10.30
2023-04-15T00:10:04.494Z,10.35
2023-04-15T00:11:06.902Z,10.37
2023-04-15T00:12:09.223Z,10.40
2023-04-15T00:13:13.792Z,10.39
2023-04-15T00:14:16.504Z,10.44
2023-04-15T00:15:19.272Z,10.40
2023-04-15T00:16:22.032Z,10.38
2023-04-15T00:17:24.437Z,10.38
2023-04-15T00:18:26.853Z,10.41
2023-04-15T00:19:29.725Z,10.41
2023-04-15T00:20:32.333Z,10.47
2023-04-15T00:21:34.600Z,10.51
2023-04-15T00:22:36.813Z,10.45
2023-04-15T00:23:39.042Z,10.48
2023-04-15T00:24:41.964Z,10.48
2023-04-15T00:25:44.903Z,10.50
2023-04-15T00:26:47.182Z,10.47
2023-04-15T00:27:49.706Z,10.43
2023-04-15T00:28:52.076Z,10.44
2023-04-15T00:29:54.673Z,10.47
2023-04-15T00:30:57.832Z,10.52
2023-04-15T00:32:00.394Z,10.61
2023-04-15T00:33:03.685Z,10.59
2023-04-15T00:34:05.898Z,10.56
2023-04-15T00:35:09.032Z,10.48
2023-04-15T00:36:11.320Z,10.50
2023-04-15T00:37:13.722Z,10.50
2023-04-15T00:38:16.037Z,10.52
2023-04-15T00:39:18.310Z,10.54
2023-04-15T00:40:21.786Z,10.53
2023-04-15T00:41:25.594Z,10.56
2023-04-15T00:42:28.111Z,10.57
2023-04-15T00:43:30.391Z,10.63
2023-04-15T00:44:33.721Z,10.63
2023-04-15T00:45:37.393Z,10.57
2023-04-15T00:46:40.441Z,10.51
2023-04-15T00:47:44.266Z,10.52
2023-04-15T00:48:47.525Z,10.51
2023-04-15T00:49:49.839Z,10.57
2023-04-15T00:50:53.603Z,10.56
2023-04-15T00:51:56.312Z,10.56
2023-04-15T00:52:59.704Z,10.54
2023-04-15T00:54:03.553Z,10.55
2023-04-15T00:55:06.955Z,10.46
2023-04-15T00:56:14.901Z,10.44
2023-04-15T00:57:27.688Z,10.45
2023-04-15T00:58:36.473Z,10.44
2023-04-15T00:59:54.784Z,10.47
2023-04-15T01:01:01.977Z,10.50
2023-04-15T01:02:05.845Z,10.57
2023-04-15T01:03:08.894Z,10.60
2023-04-15T01:04:12.337Z,10.67
2023-04-15T01:05:18.559Z,10.68
2023-04-15T01:06:21.490Z,10.61
2023-04-15T01:07:23.967Z,10.67
2023-04-15T01:08:29.359Z,10.63
2023-04-15T01:09:33.309Z,10.59
2023-04-15T01:10:36.084Z,10.60
2023-04-15T01:11:39.159Z,10.55
2023-04-15T01:12:44.603Z,10.55
2023-04-15T01:13:47.763Z,10.51
2023-04-15T01:14:50.012Z,10.48
2023-04-15T01:15:53.363Z,10.50
2023-04-15T01:16:55.861Z,10.46
2023-04-15T01:17:59.430Z,10.41
2023-04-15T01:19:02.360Z,10.44
2023-04-15T01:20:06.102Z,10.46
2023-04-15T01:21:08.635Z,10.43
2023-04-15T01:22:11.155Z,10.47
2023-04-15T01:23:14.329Z,10.42
2023-04-15T01:24:18.548Z,10.42
2023-04-15T01:25:31.376Z,10.42
2023-04-15T01:26:33.626Z,10.47
2023-04-15T01:27:39.215Z,10.52
2023-04-15T01:28:41.721Z,10.52
2023-04-15T01:29:44.109Z,10.54
2023-04-15T01:30:47.963Z,10.53
2023-04-15T01:31:55.213Z,10.53
2023-04-15T01:32:57.630Z,10.51
2023-04-15T01:34:01.436Z,10.64
2023-04-15T01:35:03.837Z,10.68
2023-04-15T01:36:08.499Z,10.66
2023-04-15T01:37:10.900Z,10.69
2023-04-15T01:38:13.617Z,10.72
2023-04-15T01:39:17.011Z,10.77
2023-04-15T01:40:19.219Z,10.76
2023-04-15T01:41:28.334Z,10.76
2023-04-15T01:42:31.878Z,10.79
2023-04-15T01:43:37.117Z,10.80
2023-04-15T01:44:39.565Z,10.82
2023-04-15T01:45:41.843Z,10.88
2023-04-15T01:46:45.331Z,10.83
2023-04-15T01:47:47.886Z,10.73
2023-04-15T01:48:50.301Z,10.81
2023-04-15T01:49:52.691Z,10.85
2023-04-15T01:50:58.082Z,10.82
2023-04-15T01:52:00.642Z,10.75
2023-04-15T01:53:02.917Z,10.74
2023-04-15T01:54:05.152Z,10.79
2023-04-15T01:55:08.602Z,10.86
2023-04-15T01:56:10.959Z,10.85
2023-04-15T01:57:13.526Z,10.82
2023-04-15T01:58:15.753Z,10.92
2023-04-15T01:59:18.791Z,10.92
2023-04-15T02:00:22.311Z,10.85
2023-04-15T02:01:25.071Z,10.82
2023-04-15T02:02:27.787Z,10.76
2023-04-15T02:03:32.436Z,10.78
2023-04-15T02:04:34.961Z,10.75
2023-04-15T02:05:37.290Z,10.68
2023-04-15T02:06:39.578Z,10.69
2023-04-15T02:07:43.555Z,10.87
2023-04-15T02:08:45.764Z,10.91
2023-04-15T02:09:47.996Z,10.89
2023-04-15T02:10:50.988Z,10.94
2023-04-15T02:11:54.310Z,10.98
2023-04-15T02:12:57.052Z,10.94
2023-04-15T02:14:07.008Z,11.01
2023-04-15T02:15:10.343Z,11.05
2023-04-15T02:16:19.675Z,11.09
2023-04-15T02:17:22.033Z,11.01
2023-04-15T02:18:24.372Z,10.98
2023-04-15T02:19:26.763Z,10.99
2023-04-15T02:20:30.802Z,10.99
2023-04-15T02:21:35.398Z,10.99
2023-04-15T02:22:38.503Z,10.99
2023-04-15T02:23:41.060Z,11.03
2023-04-15T02:24:43.259Z,11.01
2023-04-15T02:25:53.745Z,10.98
2023-04-15T02:26:56.522Z,11.05
2023-04-15T02:27:58.922Z,11.10
2023-04-15T02:29:01.337Z,11.18
2023-04-15T02:30:04.101Z,11.21
2023-04-15T02:31:07.860Z,11.16
2023-04-15T02:32:11.239Z,11.11
2023-04-15T02:33:13.595Z,11.05
2023-04-15T02:34:15.904Z,10.93
2023-04-15T02:35:21.050Z,10.91
2023-04-15T02:36:24.020Z,10.93
2023-04-15T02:37:28.673Z,10.95
2023-04-15T02:38:32.188Z,11.00
2023-04-15T02:39:34.619Z,10.96
2023-04-15T02:40:37.366Z,11.01
2023-04-15T02:41:39.648Z,11.00
2023-04-15T02:42:42.916Z,11.01
2023-04-15T02:43:47.911Z,10.91
2023-04-15T02:44:50.612Z,10.58
2023-04-15T02:45:53.962Z,10.39
2023-04-15T02:46:56.652Z,10.33
2023-04-15T02:47:59.333Z,10.35
2023-04-15T02:49:03.505Z,10.24
2023-04-15T02:50:12.786Z,10.13
2023-04-15T02:51:18.402Z,10.10
2023-04-15T02:52:20.558Z,9.97
2023-04-15T02:53:22.971Z,9.90
2023-04-15T02:54:26.120Z,9.82
2023-04-15T02:55:29.168Z,9.92
2023-04-15T02:56:31.696Z,10.03
2023-04-15T02:57:35.049Z,10.00
2023-04-15T02:58:43.311Z,10.11
2023-04-15T02:59:45.486Z,10.21
2023-04-15T03:00:47.903Z,10.06
2023-04-15T03:01:50.227Z,9.87
2023-04-15T03:02:57.738Z,9.90
2023-04-15T03:04:00.765Z,10.00
2023-04-15T03:05:03.266Z,9.95
2023-04-15T03:06:08.855Z,9.90
2023-04-15T03:07:11.092Z,9.75
2023-04-15T03:08:15.006Z,9.75
2023-04-15T03:09:17.652Z,9.78
2023-04-15T03:10:20.871Z,9.84
2023-04-15T03:11:23.289Z,9.76
2023-04-15T03:12:26.152Z,9.78
2023-04-15T03:13:31.894Z,9.77
2023-04-15T03:14:37.927Z,9.90
2023-04-15T03:15:40.276Z,9.93
2023-04-15T03:16:42.588Z,9.88
2023-04-15T03:17:44.819Z,9.94
2023-04-15T03:18:48.316Z,9.89
2023-04-15T03:19:50.708Z,9.92
2023-04-15T03:20:53.254Z,9.90
2023-04-15T03:21:55.625Z,10.01
2023-04-15T03:22:58.183Z,10.05
2023-04-15T03:24:01.604Z,9.93
2023-04-15T03:25:07.715Z,10.06
2023-04-15T03:26:09.964Z,10.11
2023-04-15T03:27:13.223Z,10.22
2023-04-15T03:28:15.768Z,10.27
2023-04-15T03:29:18.334Z,10.24
2023-04-15T03:30:21.585Z,10.26
2023-04-15T03:31:24.298Z,10.19
2023-04-15T03:32:27.222Z,10.14
2023-04-15T03:33:29.730Z,10.05
2023-04-15T03:34:32.363Z,10.10
2023-04-15T03:35:34.945Z,10.04
2023-04-15T03:36:37.678Z,10.03
2023-04-15T03:37:40.030Z,10.03
2023-04-15T03:38:42.748Z,9.98
2023-04-15T03:39:45.725Z,10.00
2023-04-15T03:40:47.990Z,10.01
2023-04-15T03:41:50.509Z,9.94
2023-04-15T03:42:52.893Z,9.92
2023-04-15T03:43:55.103Z,9.95
2023-04-15T03:44:57.675Z,10.03
2023-04-15T03:46:01.750Z,9.97
2023-04-15T03:47:04.227Z,9.93
2023-04-15T03:48:16.474Z,9.90
2023-04-15T03:49:20.169Z,9.95
2023-04-15T03:50:22.773Z,9.87
2023-04-15T03:51:25.001Z,9.96
2023-04-15T03:52:27.203Z,10.20
2023-04-15T03:53:33.105Z,10.30
2023-04-15T03:54:35.520Z,10.26
2023-04-15T03:55:38.011Z,10.30
2023-04-15T03:56:40.214Z,10.34
2023-04-15T03:57:42.496Z,10.40
2023-04-15T03:58:45.046Z,10.27
2023-04-15T03:59:48.171Z,10.21
2023-04-15T04:00:50.512Z,10.26
2023-04-15T04:01:52.859Z,10.39
2023-04-15T04:02:55.571Z,10.49
2023-04-15T04:03:58.093Z,10.35
2023-04-15T04:05:04.040Z,10.21
2023-04-15T04:06:09.340Z,10.30
2023-04-15T04:07:18.397Z,10.25
2023-04-15T04:08:21.734Z,10.11
2023-04-15T04:09:23.994Z,10.15
2023-04-15T04:10:29.972Z,10.15
2023-04-15T04:11:33.468Z,10.32
2023-04-15T04:12:35.986Z,10.49
2023-04-15T04:13:38.790Z,10.39
2023-04-15T04:14:41.109Z,10.30
2023-04-15T04:15:43.399Z,10.12
2023-04-15T04:16:45.937Z,10.10
2023-04-15T04:17:48.416Z,10.20
2023-04-15T04:18:50.978Z,10.31
2023-04-15T04:19:53.254Z,10.39
2023-04-15T04:20:55.602Z,10.20
2023-04-15T04:21:57.889Z,10.29
2023-04-15T04:23:00.139Z,10.41
2023-04-15T04:24:02.454Z,10.29
2023-04-15T04:25:04.933Z,10.42
2023-04-15T04:26:07.404Z,10.46
2023-04-15T04:27:09.617Z,10.28
2023-04-15T04:28:13.233Z,10.15
2023-04-15T04:29:17.915Z,10.07
2023-04-15T04:30:20.358Z,10.15
2023-04-15T04:31:22.655Z,10.10
2023-04-15T04:32:25.111Z,10.28
2023-04-15T04:33:27.376Z,10.39
2023-04-15T04:34:30.255Z,10.23
2023-04-15T04:35:35.074Z,10.23
2023-04-15T04:36:37.325Z,10.38
2023-04-15T04:37:39.708Z,10.38
2023-04-15T04:38:42.132Z,10.23
2023-04-15T04:39:44.347Z,10.36
2023-04-15T04:40:46.838Z,10.29
2023-04-15T04:41:49.779Z,10.22
2023-04-15T04:42:52.047Z,10.17
2023-04-15T04:43:56.481Z,10.13
2023-04-15T04:44:58.678Z,10.23
2023-04-15T04:46:01.411Z,10.16
2023-04-15T04:47:03.688Z,10.12
2023-04-15T04:48:07.320Z,10.25
2023-04-15T04:49:09.814Z,10.42
2023-04-15T04:50:12.182Z,10.43
2023-04-15T04:51:14.440Z,10.24
2023-04-15T04:52:16.745Z,10.14
2023-04-15T04:53:19.284Z,10.03
2023-04-15T04:54:21.680Z,10.09
2023-04-15T04:55:23.916Z,10.22
2023-04-15T04:56:26.581Z,10.14
2023-04-15T04:57:28.791Z,10.11
2023-04-15T04:58:31.536Z,10.09
2023-04-15T04:59:34.063Z,10.09
2023-04-15T05:00:37.958Z,10.20
2023-04-15T05:01:41.276Z,10.21
2023-04-15T05:02:44.220Z,10.17
2023-04-15T05:03:46.839Z,10.17
2023-04-15T05:04:50.413Z,10.21
2023-04-15T05:05:53.114Z,10.09
2023-04-15T05:06:55.582Z,10.02
2023-04-15T05:07:57.856Z,10.08
2023-04-15T05:09:02.782Z,10.26
2023-04-15T05:10:06.694Z,10.28
2023-04-15T05:11:09.291Z,10.06
2023-04-15T05:12:15.033Z,9.99
2023-04-15T05:13:17.286Z,10.21
2023-04-15T05:14:19.765Z,10.25
2023-04-15T05:15:22.708Z,10.29
2023-04-15T05:16:26.136Z,10.32
2023-04-15T05:17:28.407Z,10.10
2023-04-15T05:18:31.002Z,10.01
2023-04-15T05:19:33.221Z,10.02
2023-04-15T05:20:35.444Z,10.21
2023-04-15T05:21:39.547Z,10.43
2023-04-15T05:22:41.926Z,10.35
2023-04-15T05:23:44.188Z,10.07
2023-04-15T05:24:46.612Z,10.05
2023-04-15T05:25:49.052Z,10.22
2023-04-15T05:26:51.558Z,10.23
2023-04-15T05:27:53.941Z,10.29
2023-04-15T05:28:56.150Z,10.41
2023-04-15T05:29:58.397Z,10.46
2023-04-15T05:31:00.911Z,10.36
2023-04-15T05:32:03.116Z,10.44
2023-04-15T05:33:05.459Z,10.54
2023-04-15T05:34:07.731Z,10.43
2023-04-15T05:35:09.972Z,10.43
2023-04-15T05:36:12.805Z,10.41
2023-04-15T05:37:18.150Z,10.55
2023-04-15T05:38:20.435Z,10.48
2023-04-15T05:39:22.678Z,10.51
2023-04-15T05:40:24.986Z,10.45
2023-04-15T05:41:27.173Z,10.59
2023-04-15T05:42:29.649Z,10.39
2023-04-15T05:43:31.929Z,10.46
2023-04-15T05:44:34.175Z,10.69
2023-04-15T05:45:36.532Z,10.72
2023-04-15T05:46:38.995Z,10.67
2023-04-15T05:47:41.316Z,10.45
2023-04-15T05:48:43.567Z,10.54
2023-04-15T05:49:45.847Z,10.41
2023-04-15T05:50:48.331Z,10.46
2023-04-15T05:51:50.856Z,10.48
2023-04-15T05:52:53.089Z,10.39
2023-04-15T05:53:55.615Z,10.56
2023-04-15T05:54:57.949Z,10.76
2023-04-15T05:56:00.268Z,10.53
2023-04-15T05:57:03.056Z,10.35
2023-04-15T05:58:05.275Z,10.17
2023-04-15T05:59:07.629Z,10.32
2023-04-15T06:00:10.762Z,10.20
2023-04-15T06:01:12.984Z,10.40
2023-04-15T06:02:15.556Z,10.41
2023-04-15T06:03:18.115Z,10.34
2023-04-15T06:04:20.598Z,10.26
2023-04-15T06:05:23.137Z,10.42
2023-04-15T06:06:25.347Z,10.29
2023-04-15T06:07:27.610Z,10.36
2023-04-15T06:08:29.897Z,10.36
2023-04-15T06:09:32.333Z,10.40
2023-04-15T06:10:36.802Z,10.26
2023-04-15T06:11:39.247Z,10.26
2023-04-15T06:12:41.773Z,10.19
2023-04-15T06:13:44.083Z,10.20
2023-04-15T06:14:46.624Z,10.07
2023-04-15T06:15:49.525Z,10.04
2023-04-15T06:16:52.320Z,10.03
2023-04-15T06:17:54.601Z,10.12
2023-04-15T06:18:56.853Z,10.11
2023-04-15T06:19:59.063Z,10.26
2023-04-15T06:21:01.360Z,10.23
2023-04-15T06:22:03.881Z,10.14
2023-04-15T06:23:06.444Z,10.10
2023-04-15T06:24:08.691Z,10.01
2023-04-15T06:25:11.196Z,10.09
2023-04-15T06:26:13.398Z,10.25
2023-04-15T06:27:15.902Z,10.26
2023-04-15T06:28:18.155Z,10.26
2023-04-15T06:29:20.593Z,10.28
2023-04-15T06:30:24.408Z,10.09
2023-04-15T06:31:27.320Z,10.22
2023-04-15T06:32:29.872Z,10.13
2023-04-15T06:33:32.266Z,10.07
2023-04-15T06:34:37.692Z,9.95
2023-04-15T06:35:40.590Z,10.01
2023-04-15T06:36:43.063Z,10.04
2023-04-15T06:37:45.732Z,10.26
2023-04-15T06:38:48.036Z,10.42
2023-04-15T06:39:51.748Z,10.16
2023-04-15T06:40:54.050Z,10.08
2023-04-15T06:41:56.885Z,10.11
2023-04-15T06:42:59.462Z,9.85
2023-04-15T06:44:04.250Z,10.01
2023-04-15T06:45:07.043Z,9.94
2023-04-15T06:46:09.536Z,10.17
2023-04-15T06:47:14.688Z,10.26
2023-04-15T06:48:18.043Z,10.13
2023-04-15T06:49:20.220Z,10.09
2023-04-15T06:50:22.958Z,9.94
2023-04-15T06:51:26.745Z,9.78
2023-04-15T06:52:29.616Z,9.81
2023-04-15T06:53:32.250Z,9.90
2023-04-15T06:54:34.544Z,9.88
2023-04-15T06:55:37.037Z,9.91
2023-04-15T06:56:39.258Z,9.95
2023-04-15T06:57:41.656Z,10.07
2023-04-15T06:58:43.917Z,10.26
2023-04-15T06:59:47.040Z,10.11
2023-04-15T07:00:49.393Z,9.97
2023-04-15T07:01:52.006Z,10.04
2023-04-15T07:02:55.375Z,10.01
2023-04-15T07:03:59.817Z,10.21
2023-04-15T07:05:02.083Z,10.38
2023-04-15T07:06:06.640Z,10.52
2023-04-15T07:07:11.548Z,10.65
2023-04-15T07:08:14.131Z,10.75
2023-04-15T07:09:16.337Z,10.83
2023-04-15T07:10:18.729Z,10.67
2023-04-15T07:11:23.382Z,10.85
2023-04-15T07:12:26.863Z,10.68
2023-04-15T07:13:31.972Z,10.72
2023-04-15T07:14:34.209Z,10.74
2023-04-15T07:15:39.021Z,10.08
2023-04-15T07:16:41.822Z,9.92
2023-04-15T07:17:44.107Z,10.00
2023-04-15T07:18:47.050Z,10.08
2023-04-15T07:19:49.348Z,10.04
2023-04-15T07:20:52.200Z,10.20
2023-04-15T07:21:54.536Z,10.37
2023-04-15T07:22:57.610Z,10.41
2023-04-15T07:23:59.986Z,10.63
2023-04-15T07:25:02.465Z,10.54
2023-04-15T07:26:04.813Z,10.54
2023-04-15T07:27:07.511Z,10.50
2023-04-15T07:28:09.895Z,10.22
2023-04-15T07:29:12.320Z,10.08
2023-04-15T07:30:14.959Z,10.02
2023-04-15T07:31:17.514Z,9.88
2023-04-15T07:32:20.185Z,9.97
2023-04-15T07:33:23.480Z,10.23
2023-04-15T07:34:25.910Z,10.13
2023-04-15T07:35:29.382Z,10.25
2023-04-15T07:36:31.592Z,10.24
2023-04-15T07:37:33.811Z,10.43
2023-04-15T07:38:36.048Z,10.49
2023-04-15T07:39:38.475Z,10.39
2023-04-15T07:40:40.939Z,10.16
2023-04-15T07:41:43.483Z,10.25
2023-04-15T07:42:46.186Z,10.19
2023-04-15T07:43:49.120Z,10.43
2023-04-15T07:44:52.125Z,10.59
2023-04-15T07:45:57.095Z,10.73
2023-04-15T07:46:59.571Z,10.53
2023-04-15T07:48:03.142Z,10.41
2023-04-15T07:49:05.665Z,10.41
2023-04-15T07:50:09.519Z,10.39
2023-04-15T07:51:12.963Z,10.32
2023-04-15T07:52:15.361Z,10.15
2023-04-15T07:53:17.595Z,10.28
2023-04-15T07:54:20.287Z,10.35
2023-04-15T07:55:23.470Z,10.51
2023-04-15T07:56:26.520Z,10.71
2023-04-15T07:57:30.118Z,10.41
2023-04-15T07:58:32.370Z,10.14
2023-04-15T07:59:34.678Z,10.05
2023-04-15T08:00:39.500Z,10.11
2023-04-15T08:01:42.566Z,10.01
2023-04-15T08:02:46.897Z,10.14
2023-04-15T08:03:49.635Z,10.05
2023-04-15T08:04:53.246Z,10.14
2023-04-15T08:05:55.562Z,10.22
2023-04-15T08:06:58.502Z,10.38
2023-04-15T08:08:05.879Z,10.53
2023-04-15T08:09:08.305Z,10.41
2023-04-15T08:10:11.052Z,10.36
2023-04-15T08:11:13.525Z,10.36
2023-04-15T08:12:16.040Z,10.34
2023-04-15T08:13:18.741Z,10.54
2023-04-15T08:14:25.030Z,10.56
2023-04-15T08:15:28.460Z,10.40
2023-04-15T08:16:30.788Z,10.42
2023-04-15T08:17:33.631Z,10.33
2023-04-15T08:18:36.079Z,10.39
2023-04-15T08:19:38.532Z,10.42
2023-04-15T08:20:40.767Z,10.57
2023-04-15T08:21:43.084Z,10.73
2023-04-15T08:22:46.475Z,10.69
2023-04-15T08:23:50.571Z,10.71
2023-04-15T08:24:52.775Z,10.66
2023-04-15T08:25:54.976Z,10.81
2023-04-15T08:26:57.671Z,10.85
2023-04-15T08:28:07.252Z,10.81
2023-04-15T08:29:09.549Z,10.75
2023-04-15T08:30:12.425Z,10.52
2023-04-15T08:31:16.407Z,10.49
2023-04-15T08:32:19.222Z,10.52
2023-04-15T08:33:21.595Z,10.45
2023-04-15T08:34:24.332Z,10.48
2023-04-15T08:35:26.576Z,10.62
2023-04-15T08:36:28.831Z,10.49
2023-04-15T08:37:31.212Z,10.56
2023-04-15T08:38:33.851Z,10.79
2023-04-15T08:39:36.250Z,10.89
2023-04-15T08:40:43.016Z,11.06
2023-04-15T08:41:59.243Z,11.05
2023-04-15T08:43:03.889Z,10.90
2023-04-15T08:44:06.706Z,10.96
2023-04-15T08:45:11.433Z,10.89
2023-04-15T08:46:14.087Z,10.87
2023-04-15T08:47:20.882Z,10.81
2023-04-15T08:48:26.519Z,10.90
2023-04-15T08:49:31.160Z,10.96
2023-04-15T08:50:33.637Z,11.00
2023-04-15T08:51:36.086Z,11.12
2023-04-15T08:52:39.114Z,11.02
2023-04-15T08:53:41.812Z,10.96
2023-04-15T08:54:44.088Z,10.77
2023-04-15T08:55:50.831Z,10.78
2023-04-15T08:56:56.179Z,10.82
2023-04-15T08:57:58.940Z,10.93
2023-04-15T08:59:02.025Z,10.93
2023-04-15T09:00:05.527Z,10.89
2023-04-15T09:01:08.596Z,10.80
2023-04-15T09:02:12.240Z,10.72
2023-04-15T09:03:14.799Z,10.67
2023-04-15T09:04:17.383Z,10.75
2023-04-15T09:05:21.655Z,10.71
2023-04-15T09:06:24.291Z,10.80
2023-04-15T09:07:27.680Z,10.83
2023-04-15T09:08:29.916Z,11.02
2023-04-15T09:09:32.861Z,11.12
2023-04-15T09:10:35.757Z,11.17
2023-04-15T09:11:40.385Z,11.26
2023-04-15T09:12:42.850Z,11.12
2023-04-15T09:13:45.613Z,10.87
2023-04-15T09:14:49.491Z,10.75
2023-04-15T09:15:53.688Z,10.89
2023-04-15T09:17:01.379Z,10.91
2023-04-15T09:18:04.307Z,10.62
2023-04-15T09:19:34.384Z,10.68
2023-04-15T09:20:44.664Z,10.68
2023-04-15T09:21:48.028Z,10.86
2023-04-15T09:22:51.144Z,10.83
2023-04-15T09:23:59.649Z,10.73
2023-04-15T09:25:04.211Z,10.64
2023-04-15T09:26:07.196Z,10.72
2023-04-15T09:27:11.434Z,10.66
2023-04-15T09:28:13.621Z,10.83
2023-04-15T09:29:18.527Z,10.90
2023-04-15T09:30:21.293Z,10.91
2023-04-15T09:31:31.528Z,10.82
2023-04-15T09:32:34.935Z,10.84
2023-04-15T09:33:56.149Z,10.93
2023-04-15T09:34:58.654Z,10.88
2023-04-15T09:36:05.705Z,10.84
2023-04-15T09:37:09.194Z,10.67
2023-04-15T09:38:14.041Z,10.67
2023-04-15T09:39:16.201Z,10.74
2023-04-15T09:40:41.184Z,10.88
2023-04-15T09:41:44.650Z,10.90
2023-04-15T09:42:56.726Z,10.84
2023-04-15T09:43:58.997Z,10.94
2023-04-15T09:45:13.689Z,10.80
2023-04-15T09:46:16.204Z,10.67
2023-04-15T09:47:28.193Z,10.61
2023-04-15T09:48:31.511Z,10.55
2023-04-15T09:49:34.178Z,10.49
2023-04-15T09:50:41.250Z,10.68
2023-04-15T09:51:54.142Z,10.77
2023-04-15T09:53:03.975Z,10.84
2023-04-15T09:54:07.385Z,10.81
2023-04-15T09:55:10.562Z,10.71
2023-04-15T09:56:12.899Z,10.77
2023-04-15T09:57:15.986Z,10.97
2023-04-15T09:58:38.761Z,11.14
2023-04-15T09:59:41.399Z,11.24
2023-04-15T10:00:44.036Z,11.35
2023-04-15T10:01:47.116Z,11.39
2023-04-15T10:02:50.182Z,11.43
2023-04-15T10:03:53.628Z,11.46
2023-04-15T10:04:56.757Z,11.46
2023-04-15T10:06:01.067Z,11.58
2023-04-15T10:07:05.294Z,11.59
2023-04-15T10:08:08.648Z,11.66
2023-04-15T10:09:10.862Z,11.63
2023-04-15T10:10:14.291Z,11.66
2023-04-15T10:11:18.784Z,11.66
2023-04-15T10:12:22.780Z,11.66
2023-04-15T10:13:26.424Z,11.77
2023-04-15T10:14:31.341Z,11.78
2023-04-15T10:15:34.415Z,11.85
2023-04-15T10:16:43.132Z,11.91
2023-04-15T10:17:45.674Z,12.02
2023-04-15T10:18:53.368Z,11.94
2023-04-15T10:19:56.203Z,12.10
2023-04-15T10:21:01.343Z,12.17
2023-04-15T10:22:03.733Z,12.20
2023-04-15T10:23:09.019Z,12.13
2023-04-15T10:24:13.140Z,12.27
2023-04-15T10:25:15.780Z,12.35
2023-04-15T10:26:18.017Z,12.33
2023-04-15T10:27:21.039Z,12.49
2023-04-15T10:28:23.586Z,12.58
2023-04-15T10:29:29.112Z,12.55
2023-04-15T10:30:32.760Z,12.60
2023-04-15T10:31:38.171Z,12.52
2023-04-15T10:32:41.544Z,12.60
2023-04-15T10:33:44.820Z,12.60
2023-04-15T10:34:49.212Z,12.58
2023-04-15T10:35:53.944Z,12.55
2023-04-15T10:36:57.918Z,12.64
2023-04-15T10:38:00.243Z,12.69
2023-04-15T10:39:02.677Z,12.69
2023-04-15T10:40:24.686Z,12.81
2023-04-15T10:41:31.085Z,12.87
2023-04-15T10:42:36.475Z,13.01
2023-04-15T10:43:38.925Z,13.20
2023-04-15T10:44:44.885Z,13.34
2023-04-15T10:45:48.720Z,13.35
2023-04-15T10:46:51.960Z,13.35
2023-04-15T10:48:03.678Z,13.40
2023-04-15T10:49:27.975Z,13.50
2023-04-15T10:50:32.608Z,13.50
2023-04-15T10:51:41.607Z,13.41
2023-04-15T10:52:43.971Z,13.41
2023-04-15T10:53:46.348Z,13.34
2023-04-15T10:54:48.822Z,13.22
2023-04-15T10:55:51.246Z,13.27
2023-04-15T10:57:08.683Z,13.13
2023-04-15T10:58:11.233Z,13.07
2023-04-15T10:59:13.444Z,13.20
2023-04-15T11:00:17.380Z,13.22
2023-04-15T11:01:23.237Z,13.21
2023-04-15T11:03:12.278Z,13.29
2023-04-15T11:04:14.857Z,13.32
2023-04-15T11:05:18.736Z,13.44
2023-04-15T11:06:21.048Z,13.64
2023-04-15T11:07:44.774Z,13.80
2023-04-15T11:08:56.146Z,13.90
2023-04-15T11:09:58.503Z,13.98
2023-04-15T11:11:00.708Z,14.04
2023-04-15T11:12:08.642Z,13.98
2023-04-15T11:13:10.971Z,13.98
2023-04-15T11:14:16.445Z,14.05
2023-04-15T11:15:33.936Z,13.99
2023-04-15T11:16:45.064Z,14.08
2023-04-15T11:17:47.564Z,14.22
2023-04-15T11:18:56.133Z,14.20
2023-04-15T11:19:58.829Z,14.10
2023-04-15T11:21:03.791Z,14.05
2023-04-15T11:22:12.733Z,13.93
2023-04-15T11:23:16.098Z,13.94
2023-04-15T11:24:27.185Z,13.92
2023-04-15T11:25:31.574Z,13.86
2023-04-15T11:26:34.458Z,13.88
2023-04-15T11:27:36.636Z,13.92
2023-04-15T11:28:41.465Z,13.82
2023-04-15T11:29:44.245Z,13.78
2023-04-15T11:30:46.503Z,13.75
2023-04-15T11:31:49.703Z,13.58
2023-04-15T11:32:55.327Z,13.66
2023-04-15T11:34:02.230Z,13.63
2023-04-15T11:35:04.725Z,13.51
2023-04-15T11:36:08.149Z,13.48
2023-04-15T11:37:10.483Z,13.39
2023-04-15T11:38:14.218Z,13.45
2023-04-15T11:39:16.756Z,13.45
2023-04-15T11:40:29.660Z,13.36
2023-04-15T11:41:31.937Z,13.23
2023-04-15T11:42:48.607Z,13.15
2023-04-15T11:43:52.815Z,13.03
2023-04-15T11:45:09.590Z,13.00
2023-04-15T11:46:11.901Z,13.05
2023-04-15T11:47:24.312Z,13.01
2023-04-15T11:48:31.711Z,12.98
2023-04-15T11:49:34.997Z,13.02
2023-04-15T11:50:40.635Z,13.10
2023-04-15T11:51:43.246Z,13.14
2023-04-15T11:52:59.586Z,13.17
2023-04-15T11:54:02.018Z,13.19
2023-04-15T11:55:04.599Z,13.20
2023-04-15T11:56:08.976Z,13.14
2023-04-15T11:57:11.395Z,13.18
2023-04-15T11:58:24.106Z,13.23
2023-04-15T11:59:30.180Z,13.23
2023-04-15T12:00:40.114Z,13.25
2023-04-15T12:01:44.098Z,13.31
2023-04-15T12:02:47.465Z,13.36
2023-04-15T12:03:50.326Z,13.39
2023-04-15T12:05:05.796Z,13.38
2023-04-15T12:06:24.863Z,13.42
2023-04-15T12:07:27.302Z,13.45
2023-04-15T12:08:48.440Z,13.47
2023-04-15T12:09:58.069Z,13.54
2023-04-15T12:11:00.262Z,13.59
2023-04-15T12:12:02.514Z,13.62
2023-04-15T12:13:07.259Z,13.63
2023-04-15T12:14:30.240Z,13.79
2023-04-15T12:15:32.956Z,13.93
2023-04-15T12:17:02.948Z,14.02
2023-04-15T12:18:05.727Z,14.02
2023-04-15T12:19:14.980Z,13.95
2023-04-15T12:20:25.492Z,13.85
2023-04-15T12:21:35.154Z,13.77
2023-04-15T12:22:40.196Z,13.71
2023-04-15T12:24:12.714Z,13.69
2023-04-15T12:25:14.932Z,13.66
2023-04-15T12:26:18.162Z,13.44
2023-04-15T12:27:21.161Z,13.32
2023-04-15T12:28:23.463Z,13.33
2023-04-15T12:29:29.899Z,13.26
2023-04-15T12:30:32.429Z,13.15
2023-04-15T12:31:39.374Z,13.17
2023-04-15T12:32:43.513Z,13.18
2023-04-15T12:33:48.936Z,13.09
2023-04-15T12:34:52.279Z,13.08
2023-04-15T12:35:54.848Z,13.12
2023-04-15T12:36:57.926Z,13.22
2023-04-15T12:38:00.373Z,13.27
2023-04-15T12:39:04.687Z,13.44
2023-04-15T12:40:08.841Z,13.44
2023-04-15T12:41:12.138Z,13.22
2023-04-15T12:42:15.905Z,13.13
2023-04-15T12:43:18.269Z,13.09
2023-04-15T12:44:24.023Z,13.09
2023-04-15T12:45:26.878Z,13.08
2023-04-15T12:46:30.856Z,13.07
2023-04-15T12:47:33.224Z,13.17
2023-04-15T12:48:35.804Z,13.23
2023-04-15T12:49:38.260Z,13.26
2023-04-15T12:50:40.893Z,13.37
2023-04-15T12:51:43.344Z,13.47
2023-04-15T12:52:45.562Z,13.49
2023-04-15T12:53:49.606Z,13.53
2023-04-15T12:54:53.184Z,13.48
2023-04-15T12:55:55.609Z,13.54
2023-04-15T12:56:58.893Z,13.50
2023-04-15T12:58:01.081Z,13.39
2023-04-15T12:59:03.435Z,13.41
2023-04-15T13:00:08.406Z,13.21
2023-04-15T13:01:11.314Z,13.29
2023-04-15T13:02:14.006Z,13.17
2023-04-15T13:03:16.626Z,13.22
2023-04-15T13:04:20.725Z,13.24
2023-04-15T13:05:23.124Z,13.21
2023-04-15T13:06:25.326Z,13.31
2023-04-15T13:07:27.699Z,13.47
2023-04-15T13:08:29.909Z,13.50
2023-04-15T13:09:33.104Z,13.59
2023-04-15T13:10:38.882Z,13.72
2023-04-15T13:11:41.300Z,13.75
2023-04-15T13:12:43.603Z,13.86
2023-04-15T13:13:46.067Z,14.07
2023-04-15T13:14:48.265Z,14.23
2023-04-15T13:15:50.616Z,14.26
2023-04-15T13:16:53.825Z,14.25
2023-04-15T13:17:56.075Z,14.27
2023-04-15T13:18:59.553Z,14.31
2023-04-15T13:20:02.119Z,14.18
2023-04-15T13:21:05.444Z,14.17
2023-04-15T13:22:08.451Z,14.20
2023-04-15T13:23:10.649Z,14.27
2023-04-15T13:24:12.865Z,14.45
2023-04-15T13:25:15.083Z,14.57
2023-04-15T13:26:18.416Z,14.72
2023-04-15T13:27:21.392Z,14.76
2023-04-15T13:28:23.565Z,14.74
2023-04-15T13:29:25.838Z,14.78
2023-04-15T13:30:28.233Z,14.83
2023-04-15T13:31:30.610Z,14.96
2023-04-15T13:32:33.060Z,14.96
2023-04-15T13:33:35.356Z,14.92
2023-04-15T13:34:37.627Z,14.82
2023-04-15T13:35:40.470Z,14.70
2023-04-15T13:36:42.685Z,14.64
2023-04-15T13:37:44.876Z,14.69
2023-04-15T13:38:49.107Z,14.59
2023-04-15T13:39:52.762Z,14.61
2023-04-15T13:40:54.974Z,14.62
2023-04-15T13:41:57.528Z,14.63
2023-04-15T13:43:00.170Z,14.57
2023-04-15T13:44:02.531Z,14.57
2023-04-15T13:45:05.638Z,14.66
2023-04-15T13:46:08.052Z,14.63